Tensas Bluff, Louisiana
Current Conditions -  °F | °C
As of 1:53 AM on Sunday 21 Dec 2014 (Local Time) from KTVR Reporting Station
Clear Clear  
Wind Chill: 40°   Ceiling: Unl
Heat Index: 40°   Visibility: 10mi
Dew Point: 37°   Wind: 3mph
Humidity: 89%   Direction: 360°N
Pressure: 30.2"   Gusts: NA
Location:  32.1015°N, 91.2929°W
Report Text: KTVR 210753Z AUTO 36003KT 10SM CLR 04/03 A3020 RMK AO2 SLP233 T00440028
Loading
Personal Weather Stations






























Interactive Weather Map New forecast layout! Learn more

10-Day Weather Forecast

Advertisements
Track Severe Weather on mobile